Time;durP1;ratioP1;P1;durP2;ratioP2;P2;SDS_P1;SDS_P2;PMS_P1;PMS_P2;Temp;Humidity;BMP_temperature;BMP_pressure;BME280_temperature;BME280_humidity;BME280_pressure;Samples;Min_cycle;Max_cycle;Signal;HPM_P1;HPM_P2
2022/09/12 00:01:10;;;;;;;6.57;3.23;;;13.30;99.90;;;;;;4958047;28;20240;-86
2022/09/12 00:03:37;;;;;;;9.37;2.90;;;13.10;99.90;;;;;;4974815;28;20180;-86
2022/09/12 00:06:09;;;;;;;3.67;2.27;;;13.00;99.90;;;;;;4941962;28;20255;-86
2022/09/12 00:08:35;;;;;;;5.77;3.63;;;13.00;99.90;;;;;;4974090;28;20756;-87
2022/09/12 00:11:05;;;;;;;4.57;3.50;;;13.10;99.90;;;;;;4957803;28;20224;-86
2022/09/12 00:13:30;;;;;;;7.60;2.70;;;13.10;99.90;;;;;;4990049;28;20263;-86
2022/09/12 00:15:56;;;;;;;4.27;2.70;;;13.10;99.90;;;;;;4957752;28;20573;-89
2022/09/12 00:18:22;;;;;;;7.10;5.20;;;13.10;99.90;;;;;;4942164;28;20188;-86
2022/09/12 00:20:48;;;;;;;7.83;5.03;;;13.30;99.90;;;;;;4957764;28;20225;-86
2022/09/12 00:23:13;;;;;;;7.07;5.27;;;13.50;99.90;;;;;;4957411;28;20321;-87
2022/09/12 00:25:47;;;;;;;3.87;3.43;;;13.50;99.90;;;;;;4957705;28;20592;-86
2022/09/12 00:28:15;;;;;;;6.97;4.43;;;13.30;99.90;;;;;;4973544;28;20313;-87
2022/09/12 00:30:46;;;;;;;7.13;3.90;;;13.10;99.90;;;;;;4957780;28;20236;-86
2022/09/12 00:33:13;;;;;;;6.23;3.83;;;12.90;99.90;;;;;;4973326;28;20685;-87
2022/09/12 00:35:46;;;;;;;10.87;5.20;;;12.80;99.90;;;;;;4957515;28;20307;-86
2022/09/12 00:38:14;;;;;;;8.17;4.73;;;12.90;99.90;;;;;;4973190;28;20581;-87
2022/09/12 00:40:40;;;;;;;7.60;5.63;;;13.10;99.90;;;;;;4955646;28;20736;-87
2022/09/12 00:43:13;;;;;;;8.10;5.77;;;13.20;99.90;;;;;;4969790;28;21026;-86
2022/09/12 00:45:41;;;;;;;10.03;4.60;;;13.20;99.90;;;;;;4955937;28;20535;-86
2022/09/12 00:48:20;;;;;;;6.57;4.87;;;13.10;99.90;;;;;;4973669;28;20232;-86
2022/09/12 00:50:46;;;;;;;10.77;5.17;;;13.00;99.90;;;;;;4970031;28;20217;-86
2022/09/12 00:53:12;;;;;;;7.03;4.80;;;12.90;99.90;;;;;;4947139;28;20299;-86
2022/09/12 00:55:47;;;;;;;6.87;4.60;;;12.90;99.90;;;;;;4938031;29;20205;-86
2022/09/12 00:58:21;;;;;;;7.57;4.93;;;12.90;99.90;;;;;;4969893;28;20216;-86
2022/09/12 01:00:48;;;;;;;5.80;4.33;;;13.10;99.90;;;;;;4970662;28;20598;-86
2022/09/12 01:03:16;;;;;;;10.97;5.63;;;13.00;99.90;;;;;;4972771;28;20223;-87
2022/09/12 01:05:56;;;;;;;7.27;5.50;;;13.00;99.90;;;;;;4973291;28;20256;-87
2022/09/12 01:08:24;;;;;;;11.47;5.87;;;13.10;99.90;;;;;;4973001;28;20248;-87
2022/09/12 01:10:51;;;;;;;8.27;4.93;;;13.00;99.90;;;;;;4957129;28;20247;-87
2022/09/12 01:13:17;;;;;;;6.47;4.83;;;13.10;99.90;;;;;;4938010;29;20209;-87
2022/09/12 01:15:42;;;;;;;7.33;4.70;;;13.00;99.90;;;;;;4954764;29;20276;-87
2022/09/12 01:18:31;;;;;;;7.20;5.73;;;12.90;99.90;;;;;;4937808;29;20296;-87
2022/09/12 01:21:29;;;;;;;21.63;6.10;;;12.80;99.90;;;;;;4965804;28;20991;-87
2022/09/12 01:24:23;;;;;;;10.33;4.73;;;12.80;99.90;;;;;;4973054;28;20755;-87
2022/09/12 01:27:15;;;;;;;10.97;6.33;;;12.90;99.90;;;;;;4972868;28;20590;-87
2022/09/12 01:30:00;;;;;;;11.67;6.70;;;13.30;99.90;;;;;;4969764;28;20584;-87
2022/09/12 01:32:52;;;;;;;10.73;7.20;;;13.50;99.90;;;;;;4953620;28;20213;-87
2022/09/12 01:35:39;;;;;;;14.30;8.57;;;13.60;99.90;;;;;;4970828;28;20256;-87
2022/09/12 01:38:29;;;;;;;13.07;8.03;;;13.90;99.90;;;;;;4972964;28;20681;-87
2022/09/12 01:41:19;;;;;;;16.00;8.67;;;13.90;99.90;;;;;;4973038;28;20205;-87
2022/09/12 01:44:21;;;;;;;13.00;7.13;;;14.00;99.90;;;;;;4964325;28;20224;-87
2022/09/12 01:46:56;;;;;;;11.67;7.70;;;14.00;99.90;;;;;;4971040;28;20251;-87
2022/09/12 01:49:45;;;;;;;12.47;8.77;;;14.00;99.90;;;;;;4973389;28;20219;-87
2022/09/12 01:52:23;;;;;;;13.97;9.67;;;14.10;99.90;;;;;;4956851;28;20217;-87
2022/09/12 01:54:52;;;;;;;16.23;8.67;;;14.10;99.90;;;;;;4957809;29;20169;-87
2022/09/12 01:57:26;;;;;;;13.40;8.33;;;14.10;99.90;;;;;;4973767;28;20244;-87
2022/09/12 01:59:57;;;;;;;11.93;8.17;;;14.10;99.90;;;;;;4976400;28;20224;-87
2022/09/12 02:03:02;;;;;;;10.67;8.00;;;14.20;99.90;;;;;;4976291;28;20256;-87
2022/09/12 02:05:52;;;;;;;11.00;8.40;;;14.10;99.90;;;;;;4957293;28;20674;-86
2022/09/12 02:08:50;;;;;;;11.37;7.93;;;14.10;99.90;;;;;;4957019;28;20587;-87
2022/09/12 02:11:17;;;;;;;12.83;8.07;;;14.10;99.90;;;;;;4956982;28;20217;-87
2022/09/12 02:13:50;;;;;;;17.27;9.27;;;14.00;99.90;;;;;;4941307;29;20264;-87
2022/09/12 02:16:58;;;;;;;12.83;8.20;;;14.00;99.90;;;;;;4965495;28;20596;-87
2022/09/12 02:19:28;;;;;;;10.40;7.30;;;14.00;99.90;;;;;;4958816;28;20208;-87
2022/09/12 02:22:03;;;;;;;13.47;7.57;;;13.90;99.90;;;;;;4956660;28;20584;-86
2022/09/12 02:24:35;;;;;;;9.80;6.73;;;13.80;99.90;;;;;;4957030;29;20197;-87
2022/09/12 02:27:11;;;;;;;11.97;7.30;;;13.60;99.90;;;;;;4956747;28;20304;-86
2022/09/12 02:29:36;;;;;;;9.17;6.23;;;13.60;99.90;;;;;;4956580;28;20248;-87
2022/09/12 02:32:29;;;;;;;9.53;7.83;;;13.60;99.90;;;;;;4972490;28;20250;-88
2022/09/12 02:35:05;;;;;;;10.00;6.20;;;13.60;99.90;;;;;;4967278;28;20223;-87
2022/09/12 02:37:55;;;;;;;13.40;8.63;;;13.70;99.90;;;;;;4976900;28;20215;-87
2022/09/12 02:40:21;;;;;;;9.13;6.43;;;13.70;99.90;;;;;;4975735;28;20217;-87
2022/09/12 02:42:48;;;;;;;9.57;6.70;;;13.80;99.90;;;;;;4976323;28;20331;-87
2022/09/12 02:45:14;;;;;;;11.20;6.53;;;13.80;99.90;;;;;;4975564;28;20648;-87
2022/09/12 02:47:47;;;;;;;10.33;6.80;;;13.60;99.90;;;;;;4943740;28;20620;-87
2022/09/12 02:50:13;;;;;;;9.57;7.07;;;13.50;99.90;;;;;;4975588;28;20626;-87
2022/09/12 02:52:41;;;;;;;11.03;6.70;;;13.50;99.90;;;;;;4971804;28;20212;-86
2022/09/12 02:55:10;;;;;;;12.00;7.47;;;13.40;99.90;;;;;;4925243;28;20665;-88
2022/09/12 02:57:36;;;;;;;15.03;8.30;;;13.60;99.90;;;;;;4929671;28;20610;-87
2022/09/12 03:00:04;;;;;;;11.57;7.10;;;13.70;99.90;;;;;;4975139;28;20752;-86
2022/09/12 03:02:42;;;;;;;11.30;7.17;;;13.80;99.90;;;;;;4975300;28;20724;-87
2022/09/12 03:05:23;;;;;;;13.20;7.17;;;13.70;99.90;;;;;;4976275;28;20247;-87
2022/09/12 03:08:22;;;;;;;11.90;6.07;;;13.70;99.90;;;;;;4974929;28;20224;-87
2022/09/12 03:11:07;;;;;;;9.00;6.53;;;13.40;99.90;;;;;;4975222;28;20709;-87
2022/09/12 03:14:10;;;;;;;10.73;6.67;;;13.50;99.90;;;;;;4989933;28;20564;-86
2022/09/12 03:17:06;;;;;;;9.20;6.37;;;13.50;99.90;;;;;;4973811;28;20295;-86
2022/09/12 03:19:36;;;;;;;9.93;6.73;;;13.40;99.90;;;;;;4974786;28;20213;-87
2022/09/12 03:22:09;;;;;;;11.67;6.20;;;13.30;99.90;;;;;;4974951;28;20308;-87
2022/09/12 03:24:42;;;;;;;9.43;6.07;;;13.30;99.90;;;;;;4976460;28;20216;-87
2022/09/12 03:27:18;;;;;;;10.67;6.60;;;13.30;99.90;;;;;;4980584;28;20213;-86
2022/09/12 03:29:46;;;;;;;13.90;6.80;;;13.20;99.90;;;;;;4955447;28;20909;-86
2022/09/12 03:32:12;;;;;;;12.17;8.13;;;13.30;99.90;;;;;;4955025;28;20245;-86
2022/09/12 03:34:38;;;;;;;11.80;6.07;;;13.30;99.90;;;;;;4923615;29;20213;-87
2022/09/12 03:37:04;;;;;;;11.23;8.10;;;13.30;99.90;;;;;;4945990;28;20561;-86
2022/09/12 03:39:30;;;;;;;9.60;6.80;;;13.40;99.90;;;;;;4942820;28;20216;-86
2022/09/12 03:41:56;;;;;;;11.00;6.80;;;13.40;99.90;;;;;;4958223;28;20225;-86
2022/09/12 03:44:23;;;;;;;11.67;6.20;;;13.40;99.90;;;;;;4958157;28;20243;-86
2022/09/12 03:46:49;;;;;;;13.07;7.53;;;13.40;99.90;;;;;;4958289;28;20224;-86
2022/09/12 03:49:15;;;;;;;14.07;8.80;;;13.50;99.90;;;;;;4942397;28;20209;-86
2022/09/12 03:51:42;;;;;;;12.97;8.37;;;13.70;99.90;;;;;;4943192;28;20240;-88
2022/09/12 03:54:08;;;;;;;13.37;8.67;;;13.80;99.90;;;;;;4955120;28;20217;-87
2022/09/12 03:56:36;;;;;;;15.83;9.73;;;14.10;99.90;;;;;;4954878;28;20217;-87
2022/09/12 03:59:05;;;;;;;16.07;10.60;;;14.20;99.90;;;;;;4939399;29;20249;-87
2022/09/12 04:01:31;;;;;;;20.93;9.17;;;14.30;99.90;;;;;;4955582;28;20251;-87
2022/09/12 04:03:59;;;;;;;22.27;10.70;;;14.40;99.90;;;;;;4958239;28;20267;-88
2022/09/12 04:06:25;;;;;;;17.53;8.83;;;14.40;99.90;;;;;;4958145;28;20224;-87
2022/09/12 04:08:53;;;;;;;16.50;10.30;;;14.50;99.90;;;;;;4938853;28;20324;-87
2022/09/12 04:11:20;;;;;;;17.57;9.90;;;14.50;99.90;;;;;;4973779;28;20211;-86
2022/09/12 04:13:47;;;;;;;17.17;11.50;;;14.50;99.90;;;;;;4973687;28;20303;-86
2022/09/12 04:16:13;;;;;;;17.93;10.53;;;14.60;99.90;;;;;;4954400;28;20236;-86
2022/09/12 04:18:39;;;;;;;20.30;11.23;;;14.60;99.90;;;;;;4955081;29;20170;-87
2022/09/12 04:21:08;;;;;;;19.47;9.80;;;14.70;99.90;;;;;;4970098;28;20571;-86
2022/09/12 04:23:34;;;;;;;13.10;8.30;;;14.70;99.90;;;;;;4989806;28;20254;-86
2022/09/12 04:26:01;;;;;;;16.50;9.10;;;14.80;99.90;;;;;;4989928;28;20731;-86
2022/09/12 04:28:28;;;;;;;20.93;10.57;;;14.80;99.90;;;;;;4970189;28;20275;-89
2022/09/12 04:30:55;;;;;;;19.27;9.87;;;14.90;99.90;;;;;;4954722;28;20186;-87
2022/09/12 04:33:21;;;;;;;22.20;10.20;;;14.90;99.90;;;;;;4967330;28;20332;-87
2022/09/12 04:35:47;;;;;;;15.73;9.50;;;14.90;99.90;;;;;;4957426;28;20603;-86
2022/09/12 04:38:13;;;;;;;17.87;8.77;;;14.90;99.90;;;;;;4973402;28;20315;-87
2022/09/12 04:40:39;;;;;;;17.27;10.47;;;14.90;99.90;;;;;;4957317;28;20306;-87
2022/09/12 04:43:05;;;;;;;17.90;10.73;;;14.90;99.90;;;;;;4941687;28;20215;-87
2022/09/12 04:45:32;;;;;;;14.67;8.37;;;14.90;99.90;;;;;;4958144;28;20189;-87
2022/09/12 04:47:58;;;;;;;16.80;9.47;;;14.90;99.90;;;;;;4970257;28;20565;-86
2022/09/12 04:50:24;;;;;;;17.47;9.80;;;14.90;99.90;;;;;;4969983;28;20866;-86
2022/09/12 04:52:51;;;;;;;15.17;9.67;;;14.90;99.90;;;;;;4970097;28;20240;-86
2022/09/12 04:55:17;;;;;;;16.20;10.53;;;14.90;99.90;;;;;;4954057;28;20217;-87
2022/09/12 04:57:43;;;;;;;16.73;9.50;;;14.90;99.90;;;;;;4954578;29;20703;-86
2022/09/12 05:00:12;;;;;;;15.80;9.77;;;14.90;99.90;;;;;;4954104;28;20303;-86
2022/09/12 05:02:39;;;;;;;18.57;10.50;;;15.00;99.90;;;;;;4954861;28;20228;-87
2022/09/12 05:05:05;;;;;;;17.00;10.03;;;15.00;99.90;;;;;;4973000;28;20693;-87
2022/09/12 05:07:31;;;;;;;17.53;10.30;;;15.00;99.90;;;;;;4937638;29;20630;-87
2022/09/12 05:09:57;;;;;;;20.03;10.90;;;15.00;99.90;;;;;;4937917;28;20185;-87
2022/09/12 05:12:23;;;;;;;22.67;10.73;;;15.00;99.90;;;;;;4965989;28;20177;-86
2022/09/12 05:14:49;;;;;;;20.93;11.10;;;15.10;99.90;;;;;;4963435;28;20235;-86
2022/09/12 05:17:15;;;;;;;17.23;10.57;;;15.10;99.90;;;;;;4959473;28;20216;-86
2022/09/12 05:19:41;;;;;;;23.07;10.53;;;15.10;99.90;;;;;;4973493;28;20232;-86
2022/09/12 05:22:07;;;;;;;18.47;12.30;;;15.20;99.90;;;;;;4957807;28;20204;-87
2022/09/12 05:24:34;;;;;;;19.47;10.37;;;15.20;99.90;;;;;;4976735;28;20247;-87
2022/09/12 05:26:59;;;;;;;20.77;9.77;;;15.30;99.90;;;;;;4961013;28;20620;-86
2022/09/12 05:29:25;;;;;;;21.00;10.50;;;15.20;99.90;;;;;;4976889;28;20204;-87
2022/09/12 05:31:51;;;;;;;21.90;12.87;;;15.20;99.90;;;;;;4960965;28;20576;-87
2022/09/12 05:34:18;;;;;;;17.90;10.10;;;15.20;99.90;;;;;;4957618;28;20236;-87
2022/09/12 05:36:44;;;;;;;18.13;9.47;;;15.20;99.90;;;;;;4958035;29;20178;-86
2022/09/12 05:39:10;;;;;;;20.87;11.93;;;15.30;99.90;;;;;;4941897;29;20217;-88
2022/09/12 05:41:35;;;;;;;22.23;11.03;;;15.30;99.90;;;;;;4941614;29;20228;-86
2022/09/12 05:44:06;;;;;;;23.80;12.37;;;15.30;99.90;;;;;;4941828;29;20213;-87
2022/09/12 05:46:37;;;;;;;22.20;12.20;;;15.40;99.90;;;;;;4946580;28;20300;-87
2022/09/12 05:49:05;;;;;;;21.77;9.47;;;15.40;99.90;;;;;;4976748;28;20223;-87
2022/09/12 05:51:34;;;;;;;27.60;11.30;;;15.40;99.90;;;;;;4961199;28;20506;-87
2022/09/12 05:54:04;;;;;;;23.43;11.40;;;15.40;99.90;;;;;;4974962;28;20216;-89
2022/09/12 05:56:32;;;;;;;27.67;12.00;;;15.40;99.90;;;;;;4950768;28;20213;-91
2022/09/12 05:58:59;;;;;;;21.53;9.63;;;15.50;99.90;;;;;;4973694;28;20233;-90
2022/09/12 06:01:26;;;;;;;19.90;10.40;;;15.60;99.90;;;;;;4967574;28;20216;-90
2022/09/12 06:03:54;;;;;;;20.00;10.40;;;15.60;99.90;;;;;;4971247;28;20638;-90
2022/09/12 06:06:22;;;;;;;17.60;10.10;;;15.70;99.90;;;;;;4956252;28;20247;-91
2022/09/12 06:08:58;;;;;;;18.10;9.93;;;15.70;99.90;;;;;;4972109;28;20223;-91
2022/09/12 06:11:26;;;;;;;17.73;9.47;;;15.70;99.90;;;;;;4972114;28;21094;-91
2022/09/12 06:13:52;;;;;;;18.80;11.43;;;15.70;99.90;;;;;;4955634;28;20205;-90
2022/09/12 06:16:20;;;;;;;21.70;9.93;;;15.80;99.90;;;;;;4971828;28;20716;-90
2022/09/12 06:18:54;;;;;;;19.83;11.13;;;15.80;99.90;;;;;;4972319;28;20336;-92
2022/09/12 06:21:22;;;;;;;17.43;10.87;;;15.80;99.90;;;;;;4972397;28;20221;-91
2022/09/12 06:23:48;;;;;;;22.37;10.07;;;15.90;99.90;;;;;;4972395;28;20217;-90
2022/09/12 06:26:16;;;;;;;19.63;10.93;;;16.00;99.90;;;;;;4956046;28;21180;-87
2022/09/12 06:28:43;;;;;;;21.73;11.53;;;16.00;99.90;;;;;;4954610;28;20216;-89
2022/09/12 06:31:20;;;;;;;16.87;10.10;;;16.10;99.90;;;;;;4971715;28;20215;-90
2022/09/12 06:33:49;;;;;;;18.70;10.10;;;16.20;99.90;;;;;;4972493;28;20195;-90
2022/09/12 06:36:21;;;;;;;17.50;9.13;;;16.20;99.90;;;;;;4970845;28;20278;-89
2022/09/12 06:38:52;;;;;;;17.27;10.10;;;16.30;99.90;;;;;;4971617;28;20220;-88
2022/09/12 06:41:17;;;;;;;17.13;10.60;;;16.30;99.90;;;;;;4987244;28;20217;-90
2022/09/12 06:43:43;;;;;;;20.23;10.23;;;16.40;99.90;;;;;;4937893;28;20687;-89
2022/09/12 06:46:10;;;;;;;16.17;9.50;;;16.40;99.90;;;;;;4955320;28;20200;-88
2022/09/12 06:48:35;;;;;;;21.20;10.47;;;16.40;99.90;;;;;;4955711;28;20279;-89
2022/09/12 06:51:04;;;;;;;17.50;10.77;;;16.40;99.90;;;;;;4954586;28;20295;-89
2022/09/12 06:53:32;;;;;;;23.13;9.03;;;16.40;99.90;;;;;;4971306;28;20213;-89
2022/09/12 06:56:06;;;;;;;16.47;10.90;;;16.50;99.90;;;;;;4971037;28;20205;-89
2022/09/12 06:58:33;;;;;;;18.63;10.13;;;16.50;99.90;;;;;;4986935;28;20222;-88
2022/09/12 07:01:09;;;;;;;26.03;10.90;;;16.50;99.90;;;;;;4972151;28;20185;-89
2022/09/12 07:03:37;;;;;;;18.50;9.40;;;16.50;99.90;;;;;;4969999;28;20192;-88
2022/09/12 07:06:11;;;;;;;15.30;8.63;;;16.60;99.90;;;;;;4970181;28;20221;-87
2022/09/12 07:08:38;;;;;;;18.83;10.00;;;16.60;99.90;;;;;;4986197;28;20307;-89
2022/09/12 07:11:17;;;;;;;18.00;10.33;;;16.70;99.90;;;;;;4986327;28;20216;-88
2022/09/12 07:13:46;;;;;;;15.50;8.60;;;16.70;99.90;;;;;;4970069;28;20231;-88
2022/09/12 07:16:12;;;;;;;16.67;9.53;;;16.80;99.90;;;;;;4970946;28;21181;-88
2022/09/12 07:18:39;;;;;;;16.60;9.80;;;16.90;99.90;;;;;;4954723;28;20198;-89
2022/09/12 07:21:11;;;;;;;16.20;9.77;;;17.00;99.90;;;;;;4971451;28;20575;-89
2022/09/12 07:23:38;;;;;;;15.80;8.70;;;17.10;99.90;;;;;;4953836;28;20232;-88
2022/09/12 07:26:05;;;;;;;15.00;10.23;;;17.20;99.90;;;;;;4970350;28;20212;-88
2022/09/12 07:28:33;;;;;;;14.43;8.10;;;17.20;99.90;;;;;;4970401;28;20227;-88
2022/09/12 07:31:11;;;;;;;13.97;8.47;;;17.30;99.90;;;;;;4970263;28;20211;-88
2022/09/12 07:33:38;;;;;;;14.93;9.57;;;17.30;99.90;;;;;;4970346;28;20177;-88
2022/09/12 07:36:07;;;;;;;13.47;8.53;;;17.30;99.90;;;;;;4986088;28;20296;-88
2022/09/12 07:38:33;;;;;;;15.27;8.30;;;17.30;99.90;;;;;;4970470;28;20580;-88
2022/09/12 07:41:00;;;;;;;18.37;8.90;;;17.40;99.90;;;;;;4954309;28;20568;-88
2022/09/12 07:43:26;;;;;;;16.33;9.37;;;17.40;99.90;;;;;;4953925;28;20227;-90
2022/09/12 07:45:56;;;;;;;15.03;10.13;;;17.60;99.90;;;;;;4970010;28;20259;-89
2022/09/12 07:48:22;;;;;;;16.23;9.10;;;17.70;99.90;;;;;;4971063;28;20211;-87
2022/09/12 07:51:07;;;;;;;16.87;9.87;;;17.80;99.90;;;;;;4985525;28;20226;-89
2022/09/12 07:53:35;;;;;;;19.03;9.60;;;17.90;99.90;;;;;;4969903;28;20217;-89
2022/09/12 07:56:03;;;;;;;16.07;9.90;;;18.10;99.90;;;;;;4969929;28;20229;-88
2022/09/12 07:58:29;;;;;;;14.47;7.93;;;18.20;99.90;;;;;;4969889;28;20220;-87
2022/09/12 08:01:03;;;;;;;18.83;9.50;;;18.20;99.90;;;;;;4954342;28;20193;-87
2022/09/12 08:03:29;;;;;;;15.50;9.33;;;18.30;99.90;;;;;;4953766;28;20208;-89
2022/09/12 08:06:01;;;;;;;16.87;8.90;;;18.50;99.90;;;;;;4954070;28;20259;-88
2022/09/12 08:08:28;;;;;;;15.10;9.17;;;18.60;99.90;;;;;;4970649;28;20248;-88
2022/09/12 08:11:04;;;;;;;17.80;9.70;;;18.80;99.90;;;;;;4953545;28;20259;-89
2022/09/12 08:13:32;;;;;;;16.97;8.33;;;19.20;99.90;;;;;;4970360;28;20208;-90
2022/09/12 08:15:59;;;;;;;18.10;10.23;;;19.20;99.90;;;;;;4970328;28;20180;-90
2022/09/12 08:18:31;;;;;;;20.10;11.70;;;19.20;99.90;;;;;;4954423;28;20182;-91
2022/09/12 08:20:57;;;;;;;18.47;10.63;;;19.50;99.90;;;;;;4968883;28;20248;-90
2022/09/12 08:23:23;;;;;;;15.60;9.23;;;19.70;99.90;;;;;;4969182;28;20663;-89
2022/09/12 08:25:50;;;;;;;15.50;9.33;;;19.80;99.90;;;;;;4953818;28;20306;-90
2022/09/12 08:28:16;;;;;;;19.13;10.97;;;20.20;99.90;;;;;;4953992;28;20235;-90
2022/09/12 08:30:42;;;;;;;16.93;10.23;;;20.50;99.90;;;;;;4953662;28;20193;-90
2022/09/12 08:33:07;;;;;;;24.97;10.57;;;20.80;99.90;;;;;;4968979;28;20310;-89
2022/09/12 08:35:33;;;;;;;18.53;10.60;;;21.00;99.90;;;;;;4953038;28;20212;-90
2022/09/12 08:37:59;;;;;;;15.87;8.40;;;21.40;99.90;;;;;;4944061;28;20312;-90
2022/09/12 08:40:24;;;;;;;17.33;9.00;;;21.70;99.90;;;;;;4953576;28;20224;-89
2022/09/12 08:43:01;;;;;;;16.27;9.20;;;22.20;99.90;;;;;;4952216;28;20239;-90
2022/09/12 08:45:46;;;;;;;15.67;8.70;;;22.40;99.90;;;;;;4970470;28;20584;-89
2022/09/12 08:48:13;;;;;;;16.40;8.33;;;22.90;99.90;;;;;;4968052;28;20596;-88
2022/09/12 08:50:43;;;;;;;14.13;8.07;;;23.00;99.90;;;;;;4952502;28;20702;-91
2022/09/12 08:53:19;;;;;;;10.50;7.63;;;23.00;99.90;;;;;;4953000;28;20242;-87
2022/09/12 08:55:58;;;;;;;15.25;9.32;;;23.70;99.90;;;;;;4968247;28;20236;-87
2022/09/12 08:58:27;;;;;;;17.75;8.85;;;24.40;99.90;;;;;;4984568;28;20213;-87
2022/09/12 09:01:03;;;;;;;18.20;8.75;;;24.70;99.90;;;;;;4969056;28;20188;-87
2022/09/12 09:03:43;;;;;;;13.68;7.97;;;25.40;99.90;;;;;;4983619;28;20535;-88
2022/09/12 09:06:24;;;;;;;12.55;8.70;;;25.90;99.90;;;;;;4967728;28;20212;-88
2022/09/12 09:09:38;;;;;;;14.43;6.97;;;25.70;99.90;;;;;;4967874;28;20220;-87
2022/09/12 09:12:36;;;;;;;11.85;7.82;;;25.90;99.90;;;;;;4957255;28;20232;-87
2022/09/12 09:15:32;;;;;;;13.98;7.95;;;25.50;99.90;;;;;;4951044;28;20216;-87
2022/09/12 09:18:23;;;;;;;11.07;6.80;;;25.50;99.90;;;;;;4968129;28;20304;-87
2022/09/12 09:20:56;;;;;;;9.02;6.50;;;25.60;99.90;;;;;;4967078;28;20204;-88
2022/09/12 09:23:41;;;;;;;13.25;7.60;;;25.50;99.90;;;;;;4967481;28;20236;-88
2022/09/12 09:26:28;;;;;;;14.77;7.82;;;25.10;99.90;;;;;;4983657;28;20231;-88
2022/09/12 09:28:58;;;;;;;14.88;8.20;;;24.60;99.90;;;;;;4967912;28;20693;-89
2022/09/12 09:31:25;;;;;;;14.98;8.27;;;24.40;99.90;;;;;;4967469;28;20248;-88
2022/09/12 09:33:54;;;;;;;14.85;8.57;;;24.10;99.90;;;;;;4951503;28;20573;-88
2022/09/12 09:36:33;;;;;;;16.80;8.95;;;23.90;99.90;;;;;;4983913;28;20192;-89
2022/09/12 09:39:17;;;;;;;14.48;8.80;;;23.90;99.90;;;;;;4983464;28;20224;-89
2022/09/12 09:42:21;;;;;;;21.42;10.95;;;23.90;99.90;;;;;;4967158;28;20311;-88
2022/09/12 09:44:47;;;;;;;19.17;10.35;;;24.50;99.90;;;;;;4965078;28;20406;-88
2022/09/12 09:47:14;;;;;;;16.17;9.07;;;25.30;99.90;;;;;;4951054;28;20686;-87
2022/09/12 09:49:40;;;;;;;14.77;9.50;;;25.80;99.90;;;;;;4966586;28;21332;-88
2022/09/12 09:52:07;;;;;;;15.38;7.82;;;25.90;99.90;;;;;;4967351;28;20275;-87
2022/09/12 09:54:41;;;;;;;14.30;9.07;;;25.60;99.90;;;;;;4968366;28;20192;-88
2022/09/12 09:57:35;;;;;;;15.07;8.93;;;25.70;99.90;;;;;;4967573;28;20231;-87
2022/09/12 10:00:22;;;;;;;17.65;8.98;;;25.30;99.90;;;;;;4983721;28;20304;-89
2022/09/12 10:03:27;;;;;;;14.77;9.23;;;25.70;99.90;;;;;;4967616;28;20237;-90
2022/09/12 10:06:13;;;;;;;15.73;9.60;;;26.60;99.90;;;;;;4942143;28;20772;-88
2022/09/12 10:08:39;;;;;;;18.75;10.68;;;27.10;99.90;;;;;;4987113;28;20246;-87
2022/09/12 10:11:17;;;;;;;18.50;9.43;;;27.10;99.90;;;;;;4953995;28;20213;-88
2022/09/12 10:13:50;;;;;;;16.67;9.10;;;27.60;99.90;;;;;;4986998;28;20239;-87
2022/09/12 10:16:29;;;;;;;17.50;9.70;;;28.40;99.90;;;;;;4971013;28;20756;-89
2022/09/12 10:18:57;;;;;;;20.30;10.00;;;28.50;99.90;;;;;;4970883;28;20214;-90
2022/09/12 10:21:46;;;;;;;19.15;10.57;;;28.60;99.90;;;;;;4973280;28;20181;-87
2022/09/12 10:24:17;;;;;;;15.80;8.57;;;28.60;99.90;;;;;;4971792;28;20299;-88
2022/09/12 10:26:48;;;;;;;13.50;7.28;;;28.10;99.90;;;;;;4987030;28;20275;-88
2022/09/12 10:29:26;;;;;;;11.85;8.05;;;27.70;99.90;;;;;;4971356;28;20658;-90
2022/09/12 10:31:58;;;;;;;13.57;7.18;;;27.70;99.90;;;;;;4971070;28;20685;-90
2022/09/12 10:34:35;;;;;;;11.52;7.32;;;27.70;99.90;;;;;;4987267;28;20217;-89
2022/09/12 10:37:07;;;;;;;10.38;6.05;;;28.00;99.90;;;;;;4970160;28;20180;-89
2022/09/12 10:39:35;;;;;;;9.75;5.70;;;27.70;99.90;;;;;;4971019;28;20208;-89
2022/09/12 10:42:02;;;;;;;11.88;6.28;;;27.90;99.90;;;;;;4971200;28;21356;-90
2022/09/12 10:44:34;;;;;;;10.43;5.78;;;28.20;99.90;;;;;;4971049;28;20544;-90
2022/09/12 10:47:19;;;;;;;11.15;6.95;;;28.60;99.90;;;;;;4954212;28;20212;-91
2022/09/12 10:49:45;;;;;;;9.70;6.15;;;28.70;99.90;;;;;;4971209;28;20207;-89
2022/09/12 10:52:22;;;;;;;9.23;5.75;;;28.40;99.90;;;;;;4955218;28;20673;-90
2022/09/12 10:54:51;;;;;;;9.38;5.25;;;28.60;99.90;;;;;;4970688;28;20212;-86
2022/09/12 10:57:28;;;;;;;7.53;5.28;;;28.50;99.90;;;;;;4954227;28;20247;-89
2022/09/12 10:59:57;;;;;;;8.45;5.60;;;29.00;99.90;;;;;;4985688;28;20222;-86
2022/09/12 11:02:40;;;;;;;6.90;4.30;;;29.50;99.90;;;;;;4985589;28;20242;-85
2022/09/12 11:05:23;;;;;;;14.77;5.70;;;29.20;99.90;;;;;;4969633;28;20689;-85
2022/09/12 11:08:27;;;;;;;6.00;4.07;;;29.30;99.90;;;;;;4969172;28;20626;-85
2022/09/12 11:11:36;;;;;;;7.60;4.20;;;28.80;99.90;;;;;;4961194;28;20231;-89
2022/09/12 11:14:41;;;;;;;11.75;4.80;;;28.60;99.90;;;;;;4966925;28;20220;-89
2022/09/12 11:17:25;;;;;;;6.88;4.25;;;28.60;99.90;;;;;;4969305;28;20224;-90
2022/09/12 11:20:29;;;;;;;6.78;4.78;;;28.20;99.90;;;;;;4986191;28;20212;-90
2022/09/12 11:22:57;;;;;;;8.82;4.28;;;27.20;99.90;;;;;;4985480;28;20220;-88
2022/09/12 11:25:33;;;;;;;7.00;4.10;;;27.30;99.90;;;;;;4969286;28;20225;-88
2022/09/12 11:28:15;;;;;;;5.72;4.47;;;27.20;99.90;;;;;;4986145;28;20239;-90
2022/09/12 11:31:20;;;;;;;7.72;4.88;;;26.50;99.90;;;;;;4969887;28;21278;-87
2022/09/12 11:33:52;;;;;;;8.60;4.88;;;26.40;99.90;;;;;;4965115;28;20318;-90
2022/09/12 11:36:47;;;;;;;6.68;4.82;;;25.90;99.90;;;;;;4969548;28;20192;-88
2022/09/12 11:39:26;;;;;;;8.30;4.75;;;25.20;99.90;;;;;;4969091;28;20217;-88
2022/09/12 11:41:59;;;;;;;8.48;4.43;;;25.10;99.90;;;;;;4970645;28;20212;-88
2022/09/12 11:44:50;;;;;;;5.90;4.68;;;25.10;99.90;;;;;;4970377;28;20216;-89
2022/09/12 11:47:17;;;;;;;5.20;4.03;;;25.00;99.90;;;;;;4969458;28;20216;-88
2022/09/12 11:49:47;;;;;;;5.38;3.85;;;24.90;99.90;;;;;;4952887;28;20216;-88
2022/09/12 11:52:21;;;;;;;5.72;4.15;;;25.20;99.90;;;;;;4970205;28;20209;-91
2022/09/12 11:55:02;;;;;;;7.18;4.30;;;25.40;99.90;;;;;;4969049;28;20263;-89
2022/09/12 11:57:51;;;;;;;8.15;5.25;;;25.20;99.90;;;;;;4969128;28;20208;-89
2022/09/12 12:00:35;;;;;;;7.55;4.53;;;25.40;99.90;;;;;;4969448;28;20689;-88
2022/09/12 12:03:38;;;;;;;9.85;4.70;;;25.50;99.90;;;;;;4968578;28;20228;-88
2022/09/12 12:06:18;;;;;;;7.97;4.68;;;25.50;99.90;;;;;;4938921;28;20582;-87
2022/09/12 12:08:45;;;;;;;9.48;4.93;;;25.60;99.90;;;;;;4969023;28;20237;-89
2022/09/12 12:11:24;;;;;;;5.78;4.22;;;25.40;99.90;;;;;;4949403;28;20698;-88
2022/09/12 12:13:55;;;;;;;6.25;4.32;;;25.40;99.90;;;;;;4958228;28;20223;-89
2022/09/12 12:16:25;;;;;;;6.25;4.60;;;25.20;99.90;;;;;;4967575;28;20216;-88
2022/09/12 12:19:09;;;;;;;6.40;4.78;;;24.90;99.90;;;;;;4984399;28;20286;-85
2022/09/12 12:21:44;;;;;;;7.30;4.65;;;24.80;99.90;;;;;;4968052;28;20216;-86
2022/09/12 12:24:24;;;;;;;7.78;4.15;;;24.70;99.90;;;;;;4969082;28;20351;-88
2022/09/12 12:27:21;;;;;;;6.82;4.78;;;24.70;99.90;;;;;;4967325;28;20689;-86
2022/09/12 12:29:47;;;;;;;6.45;4.82;;;24.60;99.90;;;;;;4984022;28;20632;-85
2022/09/12 12:32:16;;;;;;;11.38;5.38;;;24.80;99.90;;;;;;4967791;28;20223;-85
2022/09/12 12:34:43;;;;;;;6.35;4.57;;;25.00;99.90;;;;;;4967347;28;20235;-86
2022/09/12 12:37:18;;;;;;;8.02;5.05;;;25.10;99.90;;;;;;4951532;28;20189;-86
2022/09/12 12:39:47;;;;;;;8.35;5.15;;;25.00;99.90;;;;;;4984204;28;20788;-85
2022/09/12 12:42:34;;;;;;;7.95;5.75;;;25.10;99.90;;;;;;4983606;28;20224;-86
2022/09/12 12:45:03;;;;;;;8.32;5.35;;;25.10;99.90;;;;;;4967587;28;20225;-86
2022/09/12 12:47:34;;;;;;;6.60;4.43;;;25.30;99.90;;;;;;4983903;28;20632;-85
2022/09/12 12:50:31;;;;;;;6.82;4.68;;;25.20;99.90;;;;;;4967102;28;20208;-86
2022/09/12 12:53:04;;;;;;;7.15;4.43;;;25.20;99.90;;;;;;4959208;28;20215;-88
2022/09/12 12:55:46;;;;;;;15.82;5.10;;;25.00;99.90;;;;;;4967547;28;20319;-88
2022/09/12 12:58:38;;;;;;;6.50;4.47;;;25.20;99.90;;;;;;4967661;28;20209;-85
2022/09/12 13:01:39;;;;;;;6.75;4.57;;;25.60;99.90;;;;;;4967705;28;20187;-86
2022/09/12 13:04:17;;;;;;;4.80;3.45;;;25.70;99.90;;;;;;4968051;28;20196;-88
2022/09/12 13:06:46;;;;;;;5.22;3.80;;;25.60;99.90;;;;;;4967902;28;20821;-91
2022/09/12 13:09:33;;;;;;;6.00;3.70;;;25.80;99.90;;;;;;4951698;28;20759;-90
2022/09/12 13:12:06;;;;;;;5.10;3.40;;;25.80;99.90;;;;;;4967717;28;20232;-89